createdAt,value
2022-12-28T00:00:03.944Z,5.93
2022-12-28T00:01:22.023Z,5.93
2022-12-28T00:02:30.419Z,5.89
2022-12-28T00:03:43.476Z,5.89
2022-12-28T00:04:50.212Z,5.89
2022-12-28T00:05:56.152Z,5.88
2022-12-28T00:07:01.350Z,5.86
2022-12-28T00:08:10.261Z,5.87
2022-12-28T00:09:33.608Z,5.81
2022-12-28T00:11:07.580Z,5.71
2022-12-28T00:12:08.748Z,5.76
2022-12-28T00:13:13.038Z,5.77
2022-12-28T00:14:18.854Z,5.76
2022-12-28T00:15:25.774Z,5.75
2022-12-28T00:16:40.687Z,5.78
2022-12-28T00:17:47.844Z,5.76
2022-12-28T00:18:56.962Z,5.75
2022-12-28T00:20:06.476Z,5.68
2022-12-28T00:21:14.660Z,5.69
2022-12-28T00:22:24.217Z,5.71
2022-12-28T00:23:40.788Z,5.71
2022-12-28T00:24:48.585Z,5.62
2022-12-28T00:26:09.737Z,5.68
2022-12-28T00:27:20.829Z,5.67
2022-12-28T00:28:35.131Z,5.72
2022-12-28T00:30:00.168Z,5.72
2022-12-28T00:31:15.600Z,5.72
2022-12-28T00:32:34.051Z,5.70
2022-12-28T00:33:44.637Z,5.68
2022-12-28T00:34:48.676Z,5.71
2022-12-28T00:36:00.660Z,5.69
2022-12-28T00:37:11.658Z,5.69
2022-12-28T00:38:19.531Z,5.61
2022-12-28T00:39:28.794Z,5.68
2022-12-28T00:40:32.839Z,5.71
2022-12-28T00:41:40.497Z,5.73
2022-12-28T00:42:49.882Z,5.72
2022-12-28T00:43:55.977Z,5.71
2022-12-28T00:44:59.661Z,5.70
2022-12-28T00:46:04.224Z,5.71
2022-12-28T00:47:08.615Z,5.71
2022-12-28T00:48:16.367Z,5.72
2022-12-28T00:49:23.970Z,5.72
2022-12-28T00:50:29.891Z,5.73
2022-12-28T00:51:34.206Z,5.73
2022-12-28T00:52:37.839Z,5.74
2022-12-28T00:53:44.154Z,5.76
2022-12-28T00:54:47.539Z,5.73
2022-12-28T00:55:54.202Z,5.75
2022-12-28T00:56:58.119Z,5.76
2022-12-28T00:58:08.865Z,5.77
2022-12-28T00:59:19.457Z,5.73
2022-12-28T01:00:23.850Z,5.74
2022-12-28T01:01:29.758Z,5.72
2022-12-28T01:02:34.908Z,5.72
2022-12-28T01:03:40.450Z,5.73
2022-12-28T01:04:45.877Z,5.74
2022-12-28T01:05:51.798Z,5.75
2022-12-28T01:06:55.363Z,5.76
2022-12-28T01:08:00.467Z,5.73
2022-12-28T01:09:04.342Z,5.73
2022-12-28T01:10:08.746Z,5.74
2022-12-28T01:11:21.343Z,5.74
2022-12-28T01:12:25.577Z,5.73
2022-12-28T01:13:29.406Z,5.72
2022-12-28T01:14:33.031Z,5.73
2022-12-28T01:15:41.213Z,5.73
2022-12-28T01:16:44.791Z,5.72
2022-12-28T01:17:49.862Z,5.72
2022-12-28T01:19:03.826Z,5.71
2022-12-28T01:20:12.910Z,5.69
2022-12-28T01:21:23.779Z,5.67
2022-12-28T01:22:28.288Z,5.52
2022-12-28T01:23:35.098Z,5.56
2022-12-28T01:24:46.004Z,5.52
2022-12-28T01:25:56.729Z,5.53
2022-12-28T01:27:05.268Z,5.50
2022-12-28T01:28:09.881Z,5.52
2022-12-28T01:29:13.675Z,5.54
2022-12-28T01:30:20.342Z,5.49
2022-12-28T01:31:24.654Z,5.48
2022-12-28T01:32:28.506Z,5.49
2022-12-28T01:33:33.157Z,5.47
2022-12-28T01:34:36.922Z,5.52
2022-12-28T01:35:42.117Z,5.53
2022-12-28T01:36:47.603Z,5.56
2022-12-28T01:37:59.011Z,5.55
2022-12-28T01:39:06.216Z,5.57
2022-12-28T01:40:16.768Z,5.58
2022-12-28T01:41:24.534Z,5.59
2022-12-28T01:42:42.075Z,5.53
2022-12-28T01:43:54.212Z,5.53
2022-12-28T01:45:23.904Z,5.54
2022-12-28T01:46:45.232Z,5.55
2022-12-28T01:47:58.205Z,5.56
2022-12-28T01:49:28.576Z,5.58
2022-12-28T01:50:32.870Z,5.54
2022-12-28T01:52:25.567Z,5.52
2022-12-28T01:53:29.984Z,5.48
2022-12-28T01:54:48.631Z,5.50
2022-12-28T01:55:56.610Z,5.50
2022-12-28T01:57:04.482Z,5.47
2022-12-28T01:58:18.915Z,5.47
2022-12-28T01:59:35.301Z,5.49
2022-12-28T02:00:41.591Z,5.49
2022-12-28T02:01:48.685Z,5.52
2022-12-28T02:03:03.706Z,5.45
2022-12-28T02:04:08.689Z,5.49
2022-12-28T02:05:16.087Z,5.52
2022-12-28T02:06:21.348Z,5.54
2022-12-28T02:07:51.313Z,5.57
2022-12-28T02:09:40.873Z,5.56
2022-12-28T02:10:51.894Z,5.56
2022-12-28T02:12:01.407Z,5.53
2022-12-28T02:13:09.191Z,5.54
2022-12-28T02:14:16.560Z,5.53
2022-12-28T02:15:24.753Z,5.53
2022-12-28T02:16:29.338Z,5.52
2022-12-28T02:17:35.283Z,5.51
2022-12-28T02:18:43.987Z,5.48
2022-12-28T02:19:54.652Z,5.46
2022-12-28T02:21:51.428Z,5.46
2022-12-28T02:23:18.075Z,5.43
2022-12-28T02:24:45.968Z,5.40
2022-12-28T02:26:16.520Z,5.37
2022-12-28T02:27:47.440Z,5.35
2022-12-28T02:29:19.091Z,5.32
2022-12-28T02:30:27.421Z,5.29
2022-12-28T02:31:52.836Z,5.28
2022-12-28T02:33:17.150Z,5.23
2022-12-28T02:35:09.222Z,5.21
2022-12-28T02:36:26.689Z,5.19
2022-12-28T02:38:01.397Z,5.15
2022-12-28T02:39:18.675Z,5.12
2022-12-28T02:40:35.153Z,5.12
2022-12-28T02:41:42.237Z,5.12
2022-12-28T02:42:47.153Z,5.11
2022-12-28T02:43:54.471Z,5.11
2022-12-28T02:45:19.229Z,5.10
2022-12-28T02:46:50.357Z,5.08
2022-12-28T02:48:16.280Z,5.06
2022-12-28T02:49:44.883Z,5.03
2022-12-28T02:51:21.419Z,4.99
2022-12-28T02:52:36.243Z,4.98
2022-12-28T02:54:36.951Z,4.93
2022-12-28T02:56:10.142Z,4.90
2022-12-28T02:57:32.735Z,4.89
2022-12-28T02:59:28.062Z,4.87
2022-12-28T03:01:15.230Z,4.85
2022-12-28T03:02:34.209Z,4.83
2022-12-28T03:04:08.051Z,4.79
2022-12-28T03:06:04.819Z,4.78
2022-12-28T03:07:37.919Z,4.74
2022-12-28T04:04:32.444Z,4.09
2022-12-28T04:05:39.551Z,4.09
2022-12-28T04:06:46.760Z,4.10
2022-12-28T04:07:57.104Z,4.12
2022-12-28T04:09:02.141Z,4.09
2022-12-28T04:10:09.674Z,4.11
2022-12-28T04:11:15.285Z,4.12
2022-12-28T04:12:28.256Z,4.12
2022-12-28T04:13:34.326Z,4.13
2022-12-28T04:14:39.047Z,4.13
2022-12-28T04:15:44.186Z,4.13
2022-12-28T04:16:53.167Z,4.13
2022-12-28T04:18:01.777Z,4.14
2022-12-28T04:19:11.103Z,4.13
2022-12-28T04:20:15.698Z,4.13
2022-12-28T04:21:25.450Z,4.14
2022-12-28T04:22:31.295Z,4.13
2022-12-28T04:23:42.534Z,4.14
2022-12-28T04:24:49.920Z,4.15
2022-12-28T04:26:06.256Z,4.13
2022-12-28T04:27:12.531Z,4.10
2022-12-28T04:28:22.234Z,4.10
2022-12-28T04:29:25.589Z,4.09
2022-12-28T04:30:31.986Z,4.08
2022-12-28T04:31:37.103Z,4.07
2022-12-28T04:32:47.421Z,4.09
2022-12-28T04:33:52.547Z,4.09
2022-12-28T04:34:56.102Z,4.08
2022-12-28T04:36:09.867Z,4.05
2022-12-28T04:37:16.049Z,4.06
2022-12-28T04:38:21.517Z,4.07
2022-12-28T04:39:55.395Z,4.05
2022-12-28T04:40:58.024Z,4.04
2022-12-28T04:42:02.044Z,4.04
2022-12-28T04:43:22.760Z,4.04
2022-12-28T04:44:26.616Z,4.04
2022-12-28T04:45:36.609Z,4.05
2022-12-28T04:46:42.412Z,4.04
2022-12-28T04:47:47.979Z,4.04
2022-12-28T04:48:52.935Z,4.02
2022-12-28T04:50:02.093Z,4.03
2022-12-28T04:51:26.097Z,4.02
2022-12-28T04:52:33.615Z,4.00
2022-12-28T04:53:39.220Z,3.99
2022-12-28T04:54:42.953Z,4.00
2022-12-28T04:55:47.008Z,4.00
2022-12-28T04:56:51.331Z,3.99
2022-12-28T04:57:54.796Z,3.99
2022-12-28T04:59:05.516Z,3.98
2022-12-28T05:00:10.483Z,3.97
2022-12-28T05:01:19.927Z,3.97
2022-12-28T05:02:23.626Z,3.96
2022-12-28T05:03:29.900Z,3.94
2022-12-28T05:04:33.644Z,3.95
2022-12-28T05:05:40.107Z,3.93
2022-12-28T05:06:43.911Z,3.93
2022-12-28T05:07:48.797Z,3.93
2022-12-28T05:08:52.493Z,3.92
2022-12-28T05:09:56.002Z,3.90
2022-12-28T05:11:05.769Z,3.85
2022-12-28T05:12:09.572Z,3.87
2022-12-28T05:13:13.198Z,3.87
2022-12-28T05:14:16.624Z,3.86
2022-12-28T05:15:20.023Z,3.86
2022-12-28T05:16:26.560Z,3.84
2022-12-28T05:17:31.848Z,3.83
2022-12-28T05:18:35.822Z,3.83
2022-12-28T05:19:39.787Z,3.83
2022-12-28T05:20:44.300Z,3.83
2022-12-28T05:21:47.940Z,3.82
2022-12-28T05:22:53.794Z,3.82
2022-12-28T05:23:59.126Z,3.81
2022-12-28T05:25:05.074Z,3.80
2022-12-28T05:26:15.323Z,3.80
2022-12-28T05:27:19.265Z,3.79
2022-12-28T05:28:24.200Z,3.79
2022-12-28T05:29:28.595Z,3.79
2022-12-28T05:30:34.308Z,3.80
2022-12-28T05:31:39.602Z,3.80
2022-12-28T05:32:44.695Z,3.79
2022-12-28T05:33:49.930Z,3.78
2022-12-28T05:34:56.034Z,3.79
2022-12-28T05:36:17.714Z,3.78
2022-12-28T05:37:27.332Z,3.78
2022-12-28T05:38:35.684Z,3.78
2022-12-28T05:39:41.870Z,3.77
2022-12-28T05:40:47.802Z,3.75
2022-12-28T05:42:00.644Z,3.75
2022-12-28T05:43:06.747Z,3.75
2022-12-28T05:44:15.051Z,3.73
2022-12-28T05:45:20.701Z,3.71
2022-12-28T05:46:34.968Z,3.71
2022-12-28T05:47:41.517Z,3.68
2022-12-28T05:48:51.190Z,3.66
2022-12-28T05:49:56.664Z,3.65
2022-12-28T05:51:09.374Z,3.63
2022-12-28T05:52:14.916Z,3.64
2022-12-28T05:53:19.865Z,3.62
2022-12-28T05:54:28.227Z,3.62
2022-12-28T05:55:34.728Z,3.60
2022-12-28T05:56:40.807Z,3.59
2022-12-28T05:57:49.907Z,3.59
2022-12-28T05:59:02.331Z,3.58
2022-12-28T06:00:07.984Z,3.56
2022-12-28T06:01:24.808Z,3.56
2022-12-28T06:02:30.065Z,3.54
2022-12-28T06:03:39.995Z,3.51
2022-12-28T06:04:46.654Z,3.52
2022-12-28T06:06:08.991Z,3.50
2022-12-28T06:07:16.137Z,3.48
2022-12-28T06:08:22.781Z,3.46
2022-12-28T06:09:29.843Z,3.46
2022-12-28T06:10:36.595Z,3.45
2022-12-28T06:11:50.073Z,3.42
2022-12-28T06:12:54.313Z,3.43
2022-12-28T06:14:00.924Z,3.41
2022-12-28T06:15:05.912Z,3.40
2022-12-28T06:16:18.416Z,3.40
2022-12-28T06:17:28.187Z,3.39
2022-12-28T06:18:36.077Z,3.41
2022-12-28T06:19:40.209Z,3.39
2022-12-28T06:20:53.808Z,3.38
2022-12-28T06:22:00.803Z,3.39
2022-12-28T06:23:05.472Z,3.38
2022-12-28T06:24:10.910Z,3.37
2022-12-28T06:25:15.516Z,3.38
2022-12-28T06:26:22.848Z,3.38
2022-12-28T06:27:31.322Z,3.35
2022-12-28T06:28:41.009Z,3.33
2022-12-28T06:29:52.942Z,3.34
2022-12-28T06:31:19.740Z,3.36
2022-12-28T06:32:24.271Z,3.31
2022-12-28T06:33:29.281Z,3.33
2022-12-28T06:34:32.957Z,3.33
2022-12-28T06:35:44.555Z,3.34
2022-12-28T06:36:53.176Z,3.31
2022-12-28T06:37:57.402Z,3.32
2022-12-28T06:39:04.155Z,3.27
2022-12-28T06:40:11.289Z,3.28
2022-12-28T06:41:17.260Z,3.28
2022-12-28T06:42:24.015Z,3.29
2022-12-28T06:43:36.363Z,3.28
2022-12-28T06:44:44.883Z,3.29
2022-12-28T06:46:02.198Z,3.28
2022-12-28T06:47:09.169Z,3.30
2022-12-28T06:48:15.579Z,3.29
2022-12-28T06:49:28.814Z,3.30
2022-12-28T06:50:40.155Z,3.31
2022-12-28T06:51:44.299Z,3.34
2022-12-28T06:52:57.753Z,3.32
2022-12-28T06:54:02.093Z,3.32
2022-12-28T06:55:11.813Z,3.31
2022-12-28T06:56:33.776Z,3.33
2022-12-28T06:57:41.312Z,3.37
2022-12-28T06:58:50.815Z,3.38
2022-12-28T06:59:54.855Z,3.38
2022-12-28T07:01:10.904Z,3.41
2022-12-28T07:02:17.019Z,3.47
2022-12-28T07:03:24.588Z,3.49
2022-12-28T07:04:29.598Z,3.51
2022-12-28T07:05:35.108Z,3.53
2022-12-28T07:06:44.135Z,3.55
2022-12-28T07:07:49.255Z,3.54
2022-12-28T07:10:17.812Z,3.58
2022-12-28T07:11:22.674Z,3.61
2022-12-28T07:12:26.644Z,3.62
2022-12-28T07:13:30.251Z,3.64
2022-12-28T07:14:33.769Z,3.63
2022-12-28T07:15:37.526Z,3.59
2022-12-28T07:17:44.086Z,3.63
2022-12-28T07:18:48.092Z,3.63
2022-12-28T07:19:51.685Z,3.63
2022-12-28T07:21:36.459Z,3.71
2022-12-28T07:22:40.067Z,3.72
2022-12-28T07:23:44.983Z,3.77
2022-12-28T07:24:53.512Z,3.81
2022-12-28T07:26:06.003Z,3.82
2022-12-28T07:27:09.696Z,3.83
2022-12-28T07:28:19.061Z,3.83
2022-12-28T07:29:25.411Z,3.85
2022-12-28T07:30:33.360Z,3.87
2022-12-28T07:31:45.254Z,3.88
2022-12-28T07:32:56.777Z,3.88
2022-12-28T07:34:03.675Z,3.89
2022-12-28T07:35:08.790Z,3.91
2022-12-28T07:36:19.010Z,3.91
2022-12-28T07:37:24.501Z,3.94
2022-12-28T07:38:28.799Z,3.94
2022-12-28T07:39:37.169Z,3.96
2022-12-28T07:40:41.903Z,3.97
2022-12-28T07:41:48.162Z,3.99
2022-12-28T07:42:55.063Z,4.01
2022-12-28T07:44:04.267Z,4.05
2022-12-28T07:45:12.795Z,4.08
2022-12-28T07:46:26.310Z,4.10
2022-12-28T07:47:30.022Z,4.12
2022-12-28T07:48:42.102Z,4.16
2022-12-28T07:49:49.936Z,4.19
2022-12-28T07:51:00.671Z,4.19
2022-12-28T07:52:08.385Z,4.25
2022-12-28T07:53:12.521Z,4.26
2022-12-28T07:54:18.802Z,4.29
2022-12-28T07:55:24.811Z,4.29
2022-12-28T07:57:37.173Z,4.39
2022-12-28T07:59:47.976Z,4.42
2022-12-28T08:00:52.886Z,4.41
2022-12-28T08:02:00.403Z,4.46
2022-12-28T08:03:06.151Z,4.52
2022-12-28T08:04:20.148Z,4.55
2022-12-28T08:05:24.025Z,4.56
2022-12-28T08:06:30.179Z,4.59
2022-12-28T08:07:39.778Z,4.64
2022-12-28T08:09:02.981Z,4.64
2022-12-28T08:10:22.637Z,4.77
2022-12-28T08:11:33.797Z,4.79
2022-12-28T08:12:42.869Z,4.84
2022-12-28T08:13:55.283Z,4.84
2022-12-28T08:15:01.176Z,4.86
2022-12-28T08:16:06.861Z,4.94
2022-12-28T08:17:16.103Z,4.99
2022-12-28T08:18:32.651Z,4.94
2022-12-28T08:19:38.789Z,4.95
2022-12-28T08:20:50.047Z,4.98
2022-12-28T08:21:53.694Z,5.06
2022-12-28T08:22:57.837Z,5.12
2022-12-28T08:24:02.731Z,5.20
2022-12-28T08:25:07.995Z,5.21
2022-12-28T08:26:15.142Z,5.23
2022-12-28T08:27:19.126Z,5.32
2022-12-28T08:28:23.714Z,5.37
2022-12-28T08:29:27.262Z,5.40
2022-12-28T08:30:31.057Z,5.46
2022-12-28T08:31:44.276Z,5.47
2022-12-28T08:32:50.634Z,5.49
2022-12-28T08:33:59.329Z,5.53
2022-12-28T08:35:03.288Z,5.54
2022-12-28T08:36:11.292Z,5.64
2022-12-28T08:37:14.809Z,5.68
2022-12-28T08:38:19.851Z,5.73
2022-12-28T08:39:24.208Z,5.76
2022-12-28T08:40:30.000Z,5.78
2022-12-28T08:41:33.973Z,5.82
2022-12-28T08:42:38.215Z,5.76
2022-12-28T08:43:44.913Z,5.77
2022-12-28T08:44:52.770Z,5.81
2022-12-28T08:46:04.815Z,5.92
2022-12-28T08:47:11.269Z,5.98
2022-12-28T08:48:15.139Z,6.02
2022-12-28T08:49:26.358Z,6.07
2022-12-28T08:50:32.022Z,6.13
2022-12-28T08:51:41.808Z,6.11
2022-12-28T08:52:45.803Z,6.19
2022-12-28T08:53:51.644Z,6.24
2022-12-28T08:54:55.860Z,6.28
2022-12-28T08:56:13.159Z,6.34
2022-12-28T08:57:16.689Z,6.35
2022-12-28T08:58:21.139Z,6.40
2022-12-28T08:59:26.800Z,6.43
2022-12-28T09:00:32.728Z,6.44
2022-12-28T09:01:44.244Z,6.46
2022-12-28T09:02:48.319Z,6.51
2022-12-28T09:03:55.390Z,6.54
2022-12-28T09:04:59.795Z,6.52
2022-12-28T09:06:07.033Z,6.60
2022-12-28T09:07:14.837Z,6.59
2022-12-28T09:40:13.263Z,7.72
2022-12-28T09:41:40.469Z,7.75
2022-12-28T09:42:44.765Z,7.79
2022-12-28T09:43:54.395Z,7.84
2022-12-28T09:45:11.845Z,7.92
2022-12-28T09:46:24.406Z,7.96
2022-12-28T09:48:00.382Z,8.01
2022-12-28T09:49:17.710Z,8.01
2022-12-28T09:50:32.228Z,8.06
2022-12-28T09:51:47.079Z,8.08
2022-12-28T09:53:32.029Z,8.13
2022-12-28T09:54:39.955Z,8.17
2022-12-28T09:56:27.061Z,8.14
2022-12-28T09:57:38.980Z,8.19
2022-12-28T09:58:47.949Z,8.21
2022-12-28T09:59:53.465Z,8.20
2022-12-28T10:01:03.701Z,8.21
2022-12-28T10:02:24.651Z,8.26
2022-12-28T10:03:41.433Z,8.28
2022-12-28T10:04:49.476Z,8.31
2022-12-28T10:05:57.958Z,8.28
2022-12-28T10:07:02.810Z,8.30
2022-12-28T10:08:23.992Z,8.24
2022-12-28T10:09:34.311Z,8.24
2022-12-28T10:10:48.165Z,8.27
2022-12-28T10:11:57.210Z,8.28
2022-12-28T10:14:51.347Z,8.32
2022-12-28T10:15:56.672Z,8.25
2022-12-28T10:17:08.058Z,8.25
2022-12-28T10:18:22.247Z,8.21
2022-12-28T10:19:29.301Z,8.25
2022-12-28T10:20:34.187Z,8.23
2022-12-28T10:21:40.134Z,8.29
2022-12-28T10:22:50.213Z,8.23
2022-12-28T10:24:29.687Z,8.23
2022-12-28T10:25:32.970Z,8.20
2022-12-28T10:26:44.841Z,8.21
2022-12-28T10:27:50.403Z,8.26
2022-12-28T10:29:02.208Z,8.26
2022-12-28T10:30:30.770Z,8.30
2022-12-28T10:31:40.628Z,8.32
2022-12-28T10:33:02.215Z,8.34
2022-12-28T10:34:24.451Z,8.30
2022-12-28T10:35:36.387Z,8.25
2022-12-28T10:36:40.495Z,8.19
2022-12-28T10:37:45.000Z,8.17
2022-12-28T10:38:57.766Z,8.20
2022-12-28T10:40:27.204Z,8.18
2022-12-28T10:41:41.713Z,8.12
2022-12-28T10:42:54.972Z,8.14
2022-12-28T10:44:41.718Z,8.11
2022-12-28T10:45:52.980Z,8.12
2022-12-28T10:47:30.466Z,8.09
2022-12-28T10:48:45.240Z,8.01
2022-12-28T10:51:24.070Z,8.06
2022-12-28T10:52:31.135Z,7.99
2022-12-28T10:53:52.233Z,8.05
2022-12-28T10:56:28.289Z,8.10
2022-12-28T10:57:32.747Z,8.11
2022-12-28T10:58:47.962Z,8.13
2022-12-28T11:00:23.256Z,8.05
2022-12-28T11:01:30.381Z,8.00
2022-12-28T11:02:34.806Z,8.03
2022-12-28T11:03:21.859Z,8.09
2022-12-28T11:04:02.557Z,8.06
2022-12-28T11:05:22.673Z,8.09
2022-12-28T11:06:32.168Z,8.10
2022-12-28T11:07:41.978Z,8.08
2022-12-28T11:09:03.212Z,8.08
2022-12-28T11:10:33.899Z,8.08
2022-12-28T11:11:39.500Z,8.11
2022-12-28T11:12:45.394Z,8.08
2022-12-28T11:14:30.683Z,7.99
2022-12-28T11:15:37.942Z,8.03
2022-12-28T11:16:43.430Z,7.96
2022-12-28T11:18:01.013Z,8.03
2022-12-28T11:19:05.694Z,8.08
2022-12-28T11:20:24.917Z,8.02
2022-12-28T11:21:28.582Z,8.06
2022-12-28T11:22:36.178Z,8.00
2022-12-28T11:23:40.156Z,7.96
2022-12-28T11:24:49.528Z,7.95
2022-12-28T11:25:54.011Z,7.99
2022-12-28T11:26:58.110Z,7.99
2022-12-28T11:28:16.387Z,7.98
2022-12-28T11:29:20.377Z,7.98
2022-12-28T11:30:25.471Z,7.97
2022-12-28T11:31:37.742Z,7.99
2022-12-28T11:33:04.761Z,8.04
2022-12-28T11:34:19.782Z,8.06
2022-12-28T11:35:28.956Z,8.01
2022-12-28T11:36:40.103Z,7.97
2022-12-28T11:37:57.199Z,7.97
2022-12-28T11:39:26.903Z,7.97
2022-12-28T11:40:48.068Z,7.89
2022-12-28T11:42:28.036Z,7.83
2022-12-28T11:43:31.178Z,7.95
2022-12-28T11:44:42.990Z,8.02
2022-12-28T11:46:00.731Z,8.05
2022-12-28T11:47:16.313Z,8.00
2022-12-28T11:48:41.706Z,7.98
2022-12-28T11:49:47.810Z,8.05
2022-12-28T11:50:57.673Z,8.02
2022-12-28T11:52:19.166Z,8.09
2022-12-28T11:53:46.106Z,8.07
2022-12-28T11:54:58.140Z,8.09
2022-12-28T11:56:11.072Z,7.99
2022-12-28T11:57:44.700Z,8.01
2022-12-28T11:59:22.706Z,7.95
2022-12-28T12:00:51.871Z,7.95
2022-12-28T12:02:09.247Z,7.97
2022-12-28T12:03:14.437Z,7.97
2022-12-28T12:04:42.268Z,7.95
2022-12-28T12:05:51.409Z,7.98
2022-12-28T12:07:02.199Z,8.00
2022-12-28T12:08:24.439Z,8.06
2022-12-28T12:09:39.342Z,8.03
2022-12-28T12:11:08.340Z,8.02
2022-12-28T12:12:19.771Z,8.06
2022-12-28T12:13:39.835Z,8.11
2022-12-28T12:15:14.872Z,8.14
2022-12-28T12:16:49.776Z,8.14
2022-12-28T12:18:08.200Z,8.13
2022-12-28T12:19:25.836Z,8.14
2022-12-28T12:20:48.353Z,8.23
2022-12-28T12:22:18.962Z,8.22
2022-12-28T12:23:49.597Z,8.26
2022-12-28T12:25:03.139Z,8.36
2022-12-28T12:26:41.123Z,8.38
2022-12-28T12:28:06.929Z,8.37
2022-12-28T12:29:39.222Z,8.39
2022-12-28T12:30:46.633Z,8.38
2022-12-28T12:32:06.456Z,8.40
2022-12-28T12:33:26.165Z,8.43
2022-12-28T12:34:52.424Z,8.49
2022-12-28T12:36:33.672Z,8.57
2022-12-28T12:38:04.748Z,8.57
2022-12-28T12:39:58.937Z,8.59
2022-12-28T12:41:42.294Z,8.70
2022-12-28T12:43:36.686Z,8.71
2022-12-28T12:45:18.121Z,8.70
2022-12-28T12:47:06.149Z,8.74
2022-12-28T12:48:59.990Z,8.76
2022-12-28T12:51:01.112Z,8.76
2022-12-28T12:52:51.569Z,8.76
2022-12-28T12:54:39.208Z,8.82
2022-12-28T12:56:39.499Z,8.87
2022-12-28T12:58:00.573Z,8.89
2022-12-28T12:59:57.642Z,8.98
2022-12-28T13:01:01.483Z,9.01
2022-12-28T13:03:09.468Z,9.06
2022-12-28T13:04:29.533Z,9.09
2022-12-28T13:05:42.607Z,9.09
2022-12-28T13:06:54.253Z,9.08
2022-12-28T13:08:03.231Z,9.04
2022-12-28T13:09:18.229Z,9.05
2022-12-28T13:10:48.988Z,9.03
2022-12-28T13:11:53.975Z,9.04
2022-12-28T13:13:01.735Z,9.05
2022-12-28T13:14:07.098Z,9.01
2022-12-28T13:15:18.583Z,9.02
2022-12-28T13:16:51.587Z,8.99
2022-12-28T13:19:41.192Z,9.07
2022-12-28T13:21:10.577Z,9.14
2022-12-28T13:22:34.657Z,9.14
2022-12-28T13:23:53.905Z,9.16
2022-12-28T13:25:05.816Z,9.20
2022-12-28T13:26:17.473Z,9.15
2022-12-28T13:27:22.721Z,9.07
2022-12-28T13:28:35.623Z,9.06
2022-12-28T13:29:56.005Z,9.03
2022-12-28T13:31:19.230Z,8.99
2022-12-28T13:32:37.708Z,8.96
2022-12-28T13:35:29.189Z,8.90
2022-12-28T13:36:37.203Z,8.96
2022-12-28T13:37:59.045Z,8.90
2022-12-28T13:39:13.985Z,8.86
2022-12-28T13:40:21.360Z,8.87
2022-12-28T13:41:27.659Z,8.82
2022-12-28T13:43:01.414Z,8.83
2022-12-28T13:44:43.510Z,8.80
2022-12-28T13:46:09.657Z,8.80
2022-12-28T13:47:35.306Z,8.79
2022-12-28T13:48:50.337Z,8.72
2022-12-28T13:50:16.207Z,8.74
2022-12-28T13:51:31.688Z,8.76
2022-12-28T13:53:34.016Z,8.80
2022-12-28T13:54:51.787Z,8.76
2022-12-28T13:56:29.372Z,8.78
2022-12-28T13:57:59.709Z,8.73
2022-12-28T13:59:19.037Z,8.71
2022-12-28T14:00:43.317Z,8.70
2022-12-28T14:02:00.088Z,8.69
2022-12-28T14:03:13.266Z,8.70
2022-12-28T14:06:06.059Z,8.70
2022-12-28T14:07:33.545Z,8.69
2022-12-28T14:08:55.426Z,8.69
2022-12-28T14:10:06.076Z,8.64
2022-12-28T14:11:19.831Z,8.64
2022-12-28T14:12:39.768Z,8.63
2022-12-28T14:13:46.578Z,8.66
2022-12-28T14:15:03.639Z,8.71
2022-12-28T14:16:14.765Z,8.70
2022-12-28T14:17:26.203Z,8.69
2022-12-28T14:18:42.106Z,8.67
2022-12-28T14:19:49.391Z,8.69
2022-12-28T14:21:00.823Z,8.70
2022-12-28T14:22:35.271Z,8.72
2022-12-28T14:23:46.170Z,8.66
2022-12-28T14:25:13.628Z,8.64
2022-12-28T14:26:31.434Z,8.59
2022-12-28T14:27:58.769Z,8.62
2022-12-28T14:29:11.453Z,8.57
2022-12-28T14:30:54.313Z,8.52
2022-12-28T14:32:24.516Z,8.46
2022-12-28T14:33:39.485Z,8.41
2022-12-28T14:34:55.727Z,8.37
2022-12-28T14:36:06.999Z,8.37
2022-12-28T14:37:40.613Z,8.37
2022-12-28T14:39:02.733Z,8.37
2022-12-28T14:40:37.669Z,8.30
2022-12-28T14:41:46.936Z,8.26
2022-12-28T14:42:53.861Z,8.27
2022-12-28T14:44:08.590Z,8.25
2022-12-28T14:47:44.582Z,8.13
2022-12-28T14:48:50.787Z,8.12
2022-12-28T14:50:21.362Z,8.10
2022-12-28T14:51:35.165Z,8.10
2022-12-28T14:52:51.039Z,8.11
2022-12-28T14:54:21.825Z,8.08
2022-12-28T14:55:41.879Z,8.06
2022-12-28T14:57:17.586Z,8.01
2022-12-28T14:59:02.800Z,7.97
2022-12-28T15:00:16.103Z,8.24
2022-12-28T15:00:35.255Z,7.95
2022-12-28T15:01:49.072Z,7.96
2022-12-28T15:02:55.463Z,8.02
2022-12-28T15:04:05.446Z,8.00
2022-12-28T15:05:38.702Z,8.01
2022-12-28T15:06:54.532Z,7.96
2022-12-28T15:08:01.096Z,7.99
2022-12-28T15:15:33.415Z,7.88
2022-12-28T15:16:38.833Z,7.87
2022-12-28T15:17:42.304Z,7.88
2022-12-28T15:18:46.655Z,7.84
2022-12-28T15:19:50.236Z,7.85
2022-12-28T15:20:56.040Z,7.85
2022-12-28T15:22:00.376Z,7.89
2022-12-28T15:23:05.804Z,7.88
2022-12-28T15:24:23.641Z,7.90
2022-12-28T15:25:29.254Z,7.86
2022-12-28T15:27:02.656Z,7.83
2022-12-28T15:30:06.593Z,7.78
2022-12-28T15:31:48.174Z,7.80
2022-12-28T15:32:56.042Z,7.87
2022-12-28T15:34:00.265Z,7.86
2022-12-28T15:35:06.080Z,7.85
2022-12-28T15:36:19.615Z,7.85
2022-12-28T15:37:50.160Z,7.82
2022-12-28T15:39:03.364Z,7.84
2022-12-28T15:40:10.712Z,7.80
2022-12-28T15:41:52.478Z,7.78
2022-12-28T15:42:59.638Z,7.79
2022-12-28T15:44:06.001Z,7.78
2022-12-28T15:45:11.223Z,7.81
2022-12-28T15:46:14.738Z,7.82
2022-12-28T15:47:21.305Z,7.81
2022-12-28T15:48:31.970Z,7.81
2022-12-28T15:49:39.723Z,7.81
2022-12-28T15:50:46.135Z,7.81
2022-12-28T15:51:54.284Z,7.78
2022-12-28T15:53:02.862Z,7.79
2022-12-28T15:54:08.055Z,7.80
2022-12-28T15:55:19.875Z,7.79
2022-12-28T15:56:31.747Z,7.79
2022-12-28T15:57:37.072Z,7.79
2022-12-28T15:58:48.135Z,7.78
2022-12-28T15:59:56.768Z,7.74
2022-12-28T16:01:07.322Z,7.74
2022-12-28T16:02:14.985Z,7.70
2022-12-28T16:03:20.905Z,7.71
2022-12-28T16:04:26.835Z,7.70
2022-12-28T16:05:32.652Z,7.70
2022-12-28T16:06:43.830Z,7.70
2022-12-28T16:07:48.424Z,7.69
2022-12-28T16:09:02.452Z,7.65
2022-12-28T16:10:07.170Z,7.66
2022-12-28T16:11:20.250Z,7.68
2022-12-28T16:12:31.107Z,7.64
2022-12-28T16:13:35.657Z,7.64
2022-12-28T16:14:39.761Z,7.64
2022-12-28T16:15:44.701Z,7.66
2022-12-28T16:16:48.828Z,7.60
2022-12-28T16:17:57.534Z,7.55
2022-12-28T16:19:04.742Z,7.55
2022-12-28T16:20:12.961Z,7.53
2022-12-28T16:21:20.483Z,7.56
2022-12-28T16:22:35.455Z,7.54
2022-12-28T16:23:42.567Z,7.50
2022-12-28T16:24:49.058Z,7.48
2022-12-28T16:25:52.739Z,7.49
2022-12-28T16:26:59.307Z,7.47
2022-12-28T16:28:05.374Z,7.50
2022-12-28T16:29:13.759Z,7.49
2022-12-28T16:30:18.133Z,7.43
2022-12-28T16:31:33.592Z,7.45
2022-12-28T16:32:37.592Z,7.42
2022-12-28T16:33:48.288Z,7.38
2022-12-28T16:34:55.447Z,7.35
2022-12-28T16:36:01.593Z,7.30
2022-12-28T16:37:05.946Z,7.34
2022-12-28T16:38:12.430Z,7.34
2022-12-28T16:39:20.162Z,7.27
2022-12-28T16:40:26.829Z,7.25
2022-12-28T16:41:36.722Z,7.25
2022-12-28T16:42:46.885Z,7.25
2022-12-28T16:43:51.272Z,7.24
2022-12-28T16:44:58.591Z,7.25
2022-12-28T16:46:19.943Z,7.27
2022-12-28T16:47:26.030Z,7.22
2022-12-28T16:48:32.137Z,7.23
2022-12-28T16:49:43.366Z,7.18
2022-12-28T16:51:02.124Z,7.20
2022-12-28T16:52:07.015Z,7.19
2022-12-28T16:53:14.235Z,7.15
2022-12-28T16:54:25.715Z,7.16
2022-12-28T16:55:31.848Z,7.16
2022-12-28T16:56:36.605Z,7.15
2022-12-28T16:57:41.348Z,7.15
2022-12-28T16:58:49.292Z,7.17
2022-12-28T16:59:54.300Z,7.16
2022-12-28T17:01:09.730Z,7.15
2022-12-28T17:02:15.135Z,7.13
2022-12-28T17:03:19.048Z,7.15
2022-12-28T17:04:26.274Z,7.16
2022-12-28T17:05:36.478Z,7.17
2022-12-28T17:06:44.095Z,7.14
2022-12-28T17:07:48.880Z,7.17
2022-12-28T17:08:53.342Z,7.16
2022-12-28T17:09:58.969Z,7.13
2022-12-28T17:11:10.251Z,7.15
2022-12-28T17:12:15.969Z,7.16
2022-12-28T17:13:25.214Z,7.14
2022-12-28T17:14:37.430Z,7.07
2022-12-28T17:15:42.284Z,7.11
2022-12-28T17:16:46.703Z,7.13
2022-12-28T17:17:51.159Z,7.16
2022-12-28T17:18:55.005Z,7.17
2022-12-28T17:19:59.015Z,7.11
2022-12-28T17:21:11.507Z,7.05
2022-12-28T17:22:21.263Z,7.05
2022-12-28T17:23:32.015Z,7.07
2022-12-28T17:24:46.504Z,7.07
2022-12-28T17:25:55.675Z,7.01
2022-12-28T17:27:06.850Z,7.04
2022-12-28T17:28:12.110Z,7.04
2022-12-28T17:29:20.079Z,7.01
2022-12-28T17:30:24.754Z,6.99
2022-12-28T17:31:29.057Z,6.96
2022-12-28T17:32:36.958Z,6.89
2022-12-28T17:33:57.983Z,6.94
2022-12-28T17:35:03.758Z,6.96
2022-12-28T17:36:10.014Z,6.97
2022-12-28T17:37:14.534Z,6.91
2022-12-28T17:38:19.752Z,6.84
2022-12-28T17:39:23.830Z,6.85
2022-12-28T17:40:33.672Z,6.83
2022-12-28T17:41:38.361Z,6.87
2022-12-28T17:42:50.468Z,6.85
2022-12-28T17:43:59.995Z,6.83
2022-12-28T17:45:11.143Z,6.84
2022-12-28T17:46:17.056Z,6.84
2022-12-28T17:47:23.141Z,6.86
2022-12-28T17:48:29.826Z,6.87
2022-12-28T17:49:35.289Z,6.86
2022-12-28T17:50:45.115Z,6.84
2022-12-28T17:51:50.617Z,6.83
2022-12-28T17:53:00.610Z,6.81
2022-12-28T17:54:13.916Z,6.76
2022-12-28T17:55:20.131Z,6.79
2022-12-28T17:56:27.011Z,6.79